Time;durP1;ratioP1;P1;durP2;ratioP2;P2;SDS_P1;SDS_P2;PMS_P1;PMS_P2;Temp;Humidity;BMP_temperature;BMP_pressure;BME280_temperature;BME280_humidity;BME280_pressure;Samples;Min_cycle;Max_cycle;Signal;HPM_P1;HPM_P2
2023/08/24 00:01:07;;;;;;;2.30;1.35;;;18.60;99.90;;;;;;5030714;28;20042;-49
2023/08/24 00:03:33;;;;;;;3.30;2.05;;;18.50;99.90;;;;;;5030832;28;20057;-48
2023/08/24 00:05:59;;;;;;;3.70;1.45;;;18.50;99.90;;;;;;5030546;28;20064;-47
2023/08/24 00:08:24;;;;;;;4.45;1.60;;;18.40;99.90;;;;;;5031421;28;20389;-48
2023/08/24 00:10:50;;;;;;;3.35;1.60;;;18.40;99.90;;;;;;5031011;28;20056;-54
2023/08/24 00:13:15;;;;;;;2.13;1.50;;;18.40;99.90;;;;;;5030052;28;20403;-45
2023/08/24 00:15:41;;;;;;;4.20;1.67;;;18.40;99.90;;;;;;5030981;28;20143;-46
2023/08/24 00:18:07;;;;;;;2.33;1.30;;;18.30;99.90;;;;;;5031073;28;20029;-45
2023/08/24 00:20:33;;;;;;;3.67;1.42;;;18.30;99.90;;;;;;5031018;28;20053;-45
2023/08/24 00:23:00;;;;;;;4.32;1.88;;;18.30;99.90;;;;;;5031134;28;20115;-52
2023/08/24 00:25:25;;;;;;;4.03;1.40;;;18.30;99.90;;;;;;5030926;28;20033;-49
2023/08/24 00:27:54;;;;;;;3.20;1.55;;;18.20;99.90;;;;;;5031020;28;20025;-45
2023/08/24 00:30:20;;;;;;;5.28;1.50;;;18.20;99.90;;;;;;5030645;28;20037;-46
2023/08/24 00:32:46;;;;;;;3.20;1.80;;;18.20;99.90;;;;;;5031025;28;20025;-47
2023/08/24 00:35:11;;;;;;;6.88;1.67;;;18.20;99.90;;;;;;5030796;28;20028;-45
2023/08/24 00:37:38;;;;;;;4.50;1.40;;;18.20;99.90;;;;;;5030507;28;20441;-46
2023/08/24 00:40:08;;;;;;;4.25;1.60;;;18.20;99.90;;;;;;5030674;28;20428;-46
2023/08/24 00:42:37;;;;;;;4.15;1.58;;;18.20;99.90;;;;;;5030675;28;20770;-46
2023/08/24 00:45:03;;;;;;;3.33;1.50;;;18.30;99.90;;;;;;5030494;28;20481;-46
2023/08/24 00:47:29;;;;;;;4.60;1.40;;;18.10;99.90;;;;;;5030504;28;20039;-48
2023/08/24 00:49:55;;;;;;;4.82;1.60;;;18.00;99.90;;;;;;5030891;28;20033;-53
2023/08/24 00:52:21;;;;;;;2.60;1.50;;;17.90;99.90;;;;;;5030244;28;20021;-51
2023/08/24 00:54:47;;;;;;;4.63;1.60;;;17.90;99.90;;;;;;5030559;28;20443;-46
2023/08/24 00:57:13;;;;;;;2.97;1.63;;;17.90;99.90;;;;;;5030495;28;20052;-50
2023/08/24 00:59:39;;;;;;;3.53;1.50;;;17.90;99.90;;;;;;5030090;28;20033;-46
2023/08/24 01:02:05;;;;;;;2.78;1.60;;;18.00;99.90;;;;;;5028960;28;20083;-47
2023/08/24 01:04:31;;;;;;;4.35;1.77;;;18.00;99.90;;;;;;5029928;28;20116;-47
2023/08/24 01:06:56;;;;;;;3.72;1.52;;;17.90;99.90;;;;;;5028845;28;20022;-50
2023/08/24 01:09:22;;;;;;;2.25;1.45;;;17.90;99.90;;;;;;5030574;28;20047;-46
2023/08/24 01:12:12;;;;;;;4.72;1.70;;;17.90;99.90;;;;;;5029870;28;20129;-47
2023/08/24 01:15:06;;;;;;;5.47;1.70;;;17.90;99.90;;;;;;5030228;28;20484;-47
2023/08/24 01:17:34;;;;;;;4.80;1.77;;;17.80;99.90;;;;;;5018837;28;20014;-47
2023/08/24 01:20:03;;;;;;;3.40;1.53;;;17.70;99.90;;;;;;5030209;28;20025;-48
2023/08/24 01:22:34;;;;;;;3.25;1.70;;;17.60;99.90;;;;;;5029739;28;20286;-46
2023/08/24 01:25:08;;;;;;;5.10;1.35;;;17.60;99.90;;;;;;5030123;28;20034;-46
2023/08/24 01:27:35;;;;;;;3.17;1.70;;;17.50;99.90;;;;;;5023034;28;20021;-46
2023/08/24 01:30:03;;;;;;;3.25;1.45;;;17.50;99.90;;;;;;5028681;28;20431;-47
2023/08/24 01:32:33;;;;;;;3.38;1.60;;;17.50;99.90;;;;;;5029319;28;20101;-48
2023/08/24 01:34:59;;;;;;;;;;;17.60;99.90;;;;;;5030358;28;20511;-47
2023/08/24 01:37:25;;;;;;;2.85;1.85;;;17.60;99.90;;;;;;5029530;28;19960;-53
2023/08/24 01:40:00;;;;;;;3.40;1.70;;;17.60;99.90;;;;;;5029699;28;20048;-50
2023/08/24 01:42:31;;;;;;;4.35;1.80;;;17.60;99.90;;;;;;5029621;28;20035;-52
2023/08/24 01:45:00;;;;;;;5.07;1.52;;;17.60;99.90;;;;;;5028763;28;20108;-50
2023/08/24 01:47:28;;;;;;;2.83;1.63;;;17.70;99.90;;;;;;5029407;28;20017;-55
2023/08/24 01:49:54;;;;;;;3.42;1.90;;;17.70;99.90;;;;;;5029843;28;20035;-50
2023/08/24 01:52:21;;;;;;;4.22;1.83;;;17.80;99.90;;;;;;5029722;28;20354;-53
2023/08/24 01:54:48;;;;;;;4.00;1.63;;;17.80;99.90;;;;;;5023428;28;20038;-50
2023/08/24 01:57:13;;;;;;;3.08;1.55;;;17.90;99.90;;;;;;5029357;28;20021;-50
2023/08/24 01:59:39;;;;;;;4.93;1.75;;;17.90;99.90;;;;;;5029752;28;20122;-56
2023/08/24 02:02:05;;;;;;;3.88;1.45;;;18.00;99.90;;;;;;5029868;28;20029;-50
2023/08/24 02:04:30;;;;;;;2.10;1.50;;;18.00;99.90;;;;;;5029240;28;20021;-49
2023/08/24 02:06:56;;;;;;;2.78;1.60;;;18.00;99.90;;;;;;5029822;28;20037;-55
2023/08/24 02:09:21;;;;;;;6.05;1.70;;;18.00;99.90;;;;;;5029077;28;20037;-52
2023/08/24 02:11:47;;;;;;;2.95;1.38;;;18.00;99.90;;;;;;5029840;28;20385;-50
2023/08/24 02:14:12;;;;;;;4.20;1.95;;;18.00;99.90;;;;;;5029341;28;20041;-51
2023/08/24 02:16:39;;;;;;;2.40;1.50;;;18.00;99.90;;;;;;5029139;28;20014;-47
2023/08/24 02:19:05;;;;;;;4.75;1.83;;;18.00;99.90;;;;;;5028864;28;20041;-56
2023/08/24 02:21:30;;;;;;;4.07;1.85;;;18.00;99.90;;;;;;5029643;28;20096;-54
2023/08/24 02:23:56;;;;;;;3.58;1.60;;;18.00;99.90;;;;;;5029584;28;20030;-55
2023/08/24 02:26:22;;;;;;;2.22;1.50;;;17.90;99.90;;;;;;5029202;28;20045;-51
2023/08/24 02:28:47;;;;;;;7.45;1.98;;;17.90;99.90;;;;;;5029510;28;20056;-53
2023/08/24 02:31:13;;;;;;;3.55;1.67;;;17.90;99.90;;;;;;5029126;28;20056;-54
2023/08/24 02:33:38;;;;;;;7.00;1.58;;;18.00;99.90;;;;;;5029082;28;20030;-54
2023/08/24 02:36:04;;;;;;;4.03;1.67;;;18.10;99.90;;;;;;5029615;28;20080;-53
2023/08/24 02:38:30;;;;;;;3.08;1.77;;;18.00;99.90;;;;;;5032538;28;20103;-52
2023/08/24 02:41:06;;;;;;;6.25;1.70;;;18.00;99.90;;;;;;5032853;28;20604;-55
2023/08/24 02:43:33;;;;;;;6.85;1.88;;;18.00;99.90;;;;;;5032719;28;20079;-55
2023/08/24 02:46:03;;;;;;;3.17;1.83;;;18.00;99.90;;;;;;5032510;28;20139;-56
2023/08/24 02:48:29;;;;;;;3.88;1.85;;;17.90;99.90;;;;;;5033044;28;20504;-54
2023/08/24 02:50:58;;;;;;;5.60;1.90;;;17.90;99.90;;;;;;5032685;28;20109;-55
2023/08/24 02:53:23;;;;;;;7.15;2.00;;;18.00;99.90;;;;;;5032489;28;20099;-52
2023/08/24 02:55:49;;;;;;;4.43;1.77;;;18.00;99.90;;;;;;5032402;28;20431;-52
2023/08/24 02:58:15;;;;;;;2.53;1.48;;;18.00;99.90;;;;;;5032601;28;20025;-48
2023/08/24 03:00:40;;;;;;;3.45;1.63;;;18.00;99.90;;;;;;5032466;28;20025;-54
2023/08/24 03:03:06;;;;;;;4.93;1.95;;;18.10;99.90;;;;;;5032922;28;20025;-55
2023/08/24 03:05:32;;;;;;;5.70;1.90;;;18.10;99.90;;;;;;5032678;28;20391;-49
2023/08/24 03:07:58;;;;;;;3.42;1.70;;;18.00;99.90;;;;;;5032344;28;20072;-52
2023/08/24 03:10:24;;;;;;;2.65;1.40;;;18.00;99.90;;;;;;5032354;28;20041;-51
2023/08/24 03:12:50;;;;;;;3.25;1.60;;;18.10;99.90;;;;;;5029785;28;20044;-55
2023/08/24 03:15:15;;;;;;;5.25;1.60;;;18.10;99.90;;;;;;5030535;28;20480;-55
2023/08/24 03:17:41;;;;;;;2.92;1.73;;;18.10;99.90;;;;;;5032379;28;20037;-49
2023/08/24 03:20:08;;;;;;;2.63;1.33;;;18.10;99.90;;;;;;5032169;28;20032;-49
2023/08/24 03:22:34;;;;;;;2.55;1.25;;;18.10;99.90;;;;;;5032195;28;20503;-51
2023/08/24 03:24:59;;;;;;;4.03;1.70;;;18.10;99.90;;;;;;5032228;28;20029;-51
2023/08/24 03:27:25;;;;;;;4.15;1.88;;;18.20;99.90;;;;;;5031940;28;20021;-52
2023/08/24 03:29:53;;;;;;;3.58;1.48;;;18.20;99.90;;;;;;5031732;28;20071;-50
2023/08/24 03:32:19;;;;;;;6.45;1.38;;;18.20;99.90;;;;;;5032315;28;20465;-49
2023/08/24 03:34:45;;;;;;;3.67;1.27;;;18.20;99.90;;;;;;5039457;28;20047;-47
2023/08/24 03:37:10;;;;;;;3.97;1.58;;;18.20;99.90;;;;;;5033888;28;20026;-51
2023/08/24 03:39:40;;;;;;;3.60;1.80;;;18.20;99.90;;;;;;5032060;28;20031;-53
2023/08/24 03:42:06;;;;;;;2.92;1.65;;;18.20;99.90;;;;;;5031586;28;20534;-50
2023/08/24 03:44:32;;;;;;;2.95;1.75;;;18.20;99.90;;;;;;5031094;28;20047;-49
2023/08/24 03:46:58;;;;;;;2.38;1.33;;;18.20;99.90;;;;;;5031009;28;20021;-53
2023/08/24 03:49:24;;;;;;;3.63;1.60;;;18.20;99.90;;;;;;5031765;28;20032;-48
2023/08/24 03:51:50;;;;;;;5.28;1.70;;;18.10;99.90;;;;;;5031920;28;20026;-53
2023/08/24 03:54:15;;;;;;;3.53;1.50;;;18.10;99.90;;;;;;5031357;28;20178;-47
2023/08/24 03:56:41;;;;;;;4.65;1.50;;;18.10;99.90;;;;;;5031364;28;20044;-55
2023/08/24 03:59:07;;;;;;;2.97;1.77;;;18.10;99.90;;;;;;5031186;28;20104;-53
2023/08/24 04:01:32;;;;;;;3.42;1.70;;;18.10;99.90;;;;;;5031642;28;20025;-52
2023/08/24 04:03:58;;;;;;;3.40;1.67;;;18.10;99.90;;;;;;5031342;28;20489;-50
2023/08/24 04:06:24;;;;;;;4.00;1.73;;;18.20;99.90;;;;;;5031201;28;20025;-52
2023/08/24 04:08:49;;;;;;;3.55;1.60;;;18.20;99.90;;;;;;5031408;28;20029;-48
2023/08/24 04:11:15;;;;;;;3.70;1.85;;;18.20;99.90;;;;;;5030485;28;20421;-49
2023/08/24 04:13:40;;;;;;;3.05;1.67;;;18.20;99.90;;;;;;5030301;28;20125;-49
2023/08/24 04:16:06;;;;;;;2.63;1.38;;;18.20;99.90;;;;;;5030768;28;20022;-48
2023/08/24 04:18:32;;;;;;;2.97;1.45;;;18.20;99.90;;;;;;5031142;28;20032;-47
2023/08/24 04:20:57;;;;;;;4.78;2.10;;;18.20;99.90;;;;;;5030763;28;20447;-52
2023/08/24 04:23:26;;;;;;;2.60;1.63;;;18.20;99.90;;;;;;5030794;28;20089;-54
2023/08/24 04:25:53;;;;;;;5.68;1.92;;;18.20;99.90;;;;;;5031020;28;20731;-52
2023/08/24 04:28:19;;;;;;;3.78;1.75;;;18.20;99.90;;;;;;5030978;28;20029;-50
2023/08/24 04:30:57;;;;;;;2.95;1.73;;;18.20;99.90;;;;;;5030497;28;20404;-46
2023/08/24 04:33:22;;;;;;;2.78;1.42;;;18.20;99.90;;;;;;5030237;28;20042;-48
2023/08/24 04:35:50;;;;;;;4.70;1.90;;;18.30;99.90;;;;;;5030895;28;20370;-51
2023/08/24 04:38:16;;;;;;;2.95;1.52;;;18.20;99.90;;;;;;5030744;28;20091;-47
2023/08/24 04:40:55;;;;;;;5.00;1.98;;;18.20;99.90;;;;;;5030172;28;20021;-53
2023/08/24 04:43:22;;;;;;;3.65;1.70;;;18.20;99.90;;;;;;5029957;28;20131;-50
2023/08/24 04:45:51;;;;;;;9.35;2.20;;;18.20;99.90;;;;;;5030153;28;20030;-47
2023/08/24 04:48:16;;;;;;;3.13;1.57;;;18.20;99.90;;;;;;5030698;28;20113;-51
2023/08/24 04:50:44;;;;;;;3.92;1.80;;;18.20;99.90;;;;;;5029813;28;20413;-52
2023/08/24 04:53:09;;;;;;;6.40;2.05;;;18.20;99.90;;;;;;5030355;28;20033;-49
2023/08/24 04:55:35;;;;;;;5.05;2.10;;;18.20;99.90;;;;;;5030445;28;20503;-52
2023/08/24 04:58:00;;;;;;;3.58;1.70;;;18.20;99.90;;;;;;5030450;28;20025;-54
2023/08/24 05:00:26;;;;;;;4.15;1.90;;;18.20;99.90;;;;;;5029658;28;20057;-49
2023/08/24 05:02:52;;;;;;;3.55;1.80;;;18.20;99.90;;;;;;5030183;28;20047;-50
2023/08/24 05:05:17;;;;;;;9.30;2.00;;;18.20;99.90;;;;;;5030165;28;20025;-52
2023/08/24 05:07:43;;;;;;;4.32;2.17;;;18.20;99.90;;;;;;5030050;28;20021;-46
2023/08/24 05:10:09;;;;;;;5.05;2.08;;;18.10;99.90;;;;;;5030256;28;20103;-47
2023/08/24 05:12:35;;;;;;;4.13;2.08;;;18.10;99.90;;;;;;5029969;28;20133;-46
2023/08/24 05:15:06;;;;;;;4.00;2.20;;;18.10;99.90;;;;;;5030214;28;20043;-50
2023/08/24 05:17:31;;;;;;;5.43;1.98;;;18.10;99.90;;;;;;5030273;28;20037;-52
2023/08/24 05:19:58;;;;;;;5.80;2.47;;;18.10;99.90;;;;;;5029952;28;20084;-50
2023/08/24 05:22:23;;;;;;;4.78;1.92;;;18.00;99.90;;;;;;5029876;28;20076;-50
2023/08/24 05:24:49;;;;;;;4.93;2.20;;;18.00;99.90;;;;;;5029591;28;20404;-55
2023/08/24 05:27:15;;;;;;;4.70;2.20;;;18.10;99.90;;;;;;5030392;28;20029;-53
2023/08/24 05:29:41;;;;;;;6.32;2.33;;;18.10;99.90;;;;;;5030156;28;20029;-53
2023/08/24 05:32:07;;;;;;;7.55;2.28;;;18.10;99.90;;;;;;5029878;28;20040;-48
2023/08/24 05:34:33;;;;;;;5.13;2.15;;;18.10;99.90;;;;;;5029862;28;20038;-52
2023/08/24 05:36:59;;;;;;;3.45;1.85;;;18.00;99.90;;;;;;5029800;28;20072;-50
2023/08/24 05:39:24;;;;;;;4.78;1.73;;;18.00;99.90;;;;;;5030447;28;20044;-52
2023/08/24 05:41:53;;;;;;;6.45;2.42;;;18.00;99.90;;;;;;5029874;28;20080;-49
2023/08/24 05:44:19;;;;;;;4.78;2.30;;;18.00;99.90;;;;;;5029259;28;20109;-51
2023/08/24 05:46:46;;;;;;;4.82;2.00;;;18.10;99.90;;;;;;5029499;28;20175;-49
2023/08/24 05:49:12;;;;;;;4.00;2.25;;;18.10;99.90;;;;;;5029722;28;20033;-50
2023/08/24 05:51:37;;;;;;;4.65;2.20;;;18.20;99.90;;;;;;5029318;28;20037;-54
2023/08/24 05:54:03;;;;;;;4.97;1.92;;;18.20;99.90;;;;;;5029656;28;20045;-53
2023/08/24 05:56:29;;;;;;;4.18;2.15;;;18.10;99.90;;;;;;5029855;28;20029;-49
2023/08/24 05:58:55;;;;;;;7.68;2.50;;;18.20;99.90;;;;;;5029713;28;20026;-53
2023/08/24 06:01:20;;;;;;;8.00;2.65;;;18.20;99.90;;;;;;5029702;28;20033;-51
2023/08/24 06:03:46;;;;;;;5.15;2.70;;;18.20;99.90;;;;;;5029385;28;20616;-53
2023/08/24 06:06:12;;;;;;;5.03;1.80;;;18.20;99.90;;;;;;5029889;28;20439;-59
2023/08/24 06:08:38;;;;;;;4.20;2.08;;;18.20;99.90;;;;;;5030164;28;20083;-50
2023/08/24 06:11:03;;;;;;;4.10;1.98;;;18.10;99.90;;;;;;5029809;28;20068;-52
2023/08/24 06:13:29;;;;;;;7.13;2.13;;;18.10;99.90;;;;;;5032854;28;20166;-49
2023/08/24 06:15:55;;;;;;;3.15;2.15;;;18.10;99.90;;;;;;5033321;28;20472;-46
2023/08/24 06:18:20;;;;;;;4.22;2.08;;;18.10;99.90;;;;;;5032839;28;20033;-55
2023/08/24 06:20:48;;;;;;;4.00;2.25;;;18.10;99.90;;;;;;5033671;28;20053;-48
2023/08/24 06:23:16;;;;;;;3.95;2.17;;;18.20;99.90;;;;;;5033344;28;20392;-57
2023/08/24 06:25:41;;;;;;;4.82;2.42;;;18.20;99.90;;;;;;5033372;28;20110;-56
2023/08/24 06:28:08;;;;;;;7.50;2.60;;;18.20;99.90;;;;;;5033591;28;20065;-48
2023/08/24 06:30:39;;;;;;;4.55;2.38;;;18.10;99.90;;;;;;5033074;28;20086;-47
2023/08/24 06:33:05;;;;;;;5.28;2.38;;;18.00;99.90;;;;;;5033233;28;20045;-52
2023/08/24 06:35:32;;;;;;;4.75;2.50;;;18.00;99.90;;;;;;5033306;28;20032;-47
2023/08/24 06:37:58;;;;;;;6.70;2.47;;;18.00;99.90;;;;;;5033232;28;20026;-46
2023/08/24 06:40:24;;;;;;;4.45;2.78;;;18.00;99.90;;;;;;5032216;28;20358;-47
2023/08/24 06:42:50;;;;;;;5.75;3.03;;;17.90;99.90;;;;;;5033171;28;20041;-47
2023/08/24 06:45:17;;;;;;;6.57;3.45;;;17.80;99.90;;;;;;5031083;28;20025;-51
2023/08/24 06:47:42;;;;;;;7.00;2.70;;;17.80;99.90;;;;;;5032909;28;20107;-46
2023/08/24 06:50:08;;;;;;;6.07;2.90;;;17.80;99.90;;;;;;5032918;28;20116;-51
2023/08/24 06:52:34;;;;;;;5.82;2.55;;;17.80;99.90;;;;;;5032775;28;20025;-47
2023/08/24 06:54:59;;;;;;;5.50;2.58;;;17.90;99.90;;;;;;5032812;28;20079;-47
2023/08/24 06:57:25;;;;;;;7.30;2.78;;;17.90;99.90;;;;;;5032863;28;20048;-46
2023/08/24 06:59:51;;;;;;;6.43;3.30;;;17.90;99.90;;;;;;5032264;28;20496;-51
2023/08/24 07:02:17;;;;;;;5.72;2.83;;;17.90;99.90;;;;;;5032396;28;20032;-50
2023/08/24 07:04:43;;;;;;;4.90;2.45;;;18.00;99.90;;;;;;5032356;28;20108;-50
2023/08/24 07:07:09;;;;;;;5.40;2.60;;;18.00;99.90;;;;;;5031657;28;20108;-56
2023/08/24 07:09:35;;;;;;;4.68;2.50;;;17.90;99.90;;;;;;5032378;28;20517;-52
2023/08/24 07:12:03;;;;;;;5.78;2.50;;;18.00;99.90;;;;;;5032425;28;20376;-48
2023/08/24 07:14:28;;;;;;;7.95;2.90;;;18.00;99.90;;;;;;5032440;28;20122;-52
2023/08/24 07:16:54;;;;;;;7.15;3.03;;;18.00;99.90;;;;;;5032206;28;20379;-54
2023/08/24 07:19:20;;;;;;;7.13;3.08;;;18.00;99.90;;;;;;5031994;28;20025;-53
2023/08/24 07:21:46;;;;;;;5.65;2.70;;;18.00;99.90;;;;;;5032009;28;20464;-46
2023/08/24 07:24:12;;;;;;;7.95;3.60;;;17.90;99.90;;;;;;5032063;28;20069;-53
2023/08/24 07:26:37;;;;;;;5.78;2.90;;;18.00;99.90;;;;;;5032029;28;20100;-47
2023/08/24 07:29:03;;;;;;;7.47;3.47;;;18.00;99.90;;;;;;5032027;28;20139;-49
2023/08/24 07:31:28;;;;;;;7.22;3.20;;;18.10;99.90;;;;;;5032279;28;20178;-58
2023/08/24 07:33:54;;;;;;;8.45;3.90;;;18.20;99.90;;;;;;5032001;28;20123;-57
2023/08/24 07:36:20;;;;;;;5.38;3.00;;;18.20;99.90;;;;;;5031905;28;20040;-55
2023/08/24 07:38:49;;;;;;;7.35;3.30;;;18.30;99.90;;;;;;5031842;28;20031;-55
2023/08/24 07:41:14;;;;;;;7.85;3.25;;;18.40;99.90;;;;;;5031333;28;20484;-56
2023/08/24 07:43:40;;;;;;;6.28;3.05;;;18.50;99.90;;;;;;5031909;28;20100;-47
2023/08/24 07:46:06;;;;;;;8.43;3.53;;;18.50;99.90;;;;;;5031450;28;20018;-56
2023/08/24 07:48:31;;;;;;;6.90;3.63;;;18.60;99.90;;;;;;5031980;28;20021;-55
2023/08/24 07:50:57;;;;;;;5.15;3.25;;;18.70;99.90;;;;;;5030928;28;20029;-55
2023/08/24 07:53:22;;;;;;;5.32;3.17;;;18.70;99.90;;;;;;5031403;28;20037;-60
2023/08/24 07:55:48;;;;;;;10.15;4.07;;;18.80;99.90;;;;;;5031527;28;20109;-50
2023/08/24 07:58:13;;;;;;;10.35;3.63;;;18.90;99.90;;;;;;5031520;28;20030;-54
2023/08/24 08:00:39;;;;;;;6.13;3.55;;;19.00;99.90;;;;;;5031111;28;20025;-57
2023/08/24 08:03:05;;;;;;;8.82;4.03;;;19.00;99.90;;;;;;5031486;28;20449;-54
2023/08/24 08:05:30;;;;;;;6.15;3.17;;;19.00;99.90;;;;;;5030711;28;20111;-57
2023/08/24 08:07:56;;;;;;;6.18;3.15;;;19.10;99.90;;;;;;5030732;28;20021;-50
2023/08/24 08:10:22;;;;;;;6.68;3.00;;;19.30;99.90;;;;;;5030570;28;20112;-53
2023/08/24 08:12:47;;;;;;;7.18;3.90;;;19.40;99.90;;;;;;5029909;28;20121;-52
2023/08/24 08:15:13;;;;;;;6.32;3.33;;;19.40;99.90;;;;;;5031037;28;20037;-53
2023/08/24 08:17:39;;;;;;;6.50;3.38;;;19.50;99.90;;;;;;5030975;28;20389;-55
2023/08/24 08:20:05;;;;;;;5.88;3.33;;;19.60;99.90;;;;;;5030295;28;20068;-56
2023/08/24 08:22:35;;;;;;;7.13;3.45;;;19.70;99.90;;;;;;5030693;28;20067;-61
2023/08/24 08:25:01;;;;;;;7.50;3.90;;;19.80;99.90;;;;;;5029877;28;20025;-57
2023/08/24 08:27:27;;;;;;;7.65;3.70;;;19.90;99.90;;;;;;5026196;28;20104;-52
2023/08/24 08:29:52;;;;;;;15.10;5.40;;;20.00;99.90;;;;;;5028688;28;20116;-60
2023/08/24 08:32:18;;;;;;;10.27;4.28;;;20.10;99.90;;;;;;5030585;28;20558;-46
2023/08/24 08:34:44;;;;;;;7.28;3.55;;;20.10;99.90;;;;;;5029242;28;20096;-60
2023/08/24 08:37:09;;;;;;;9.55;3.85;;;20.00;99.90;;;;;;5029921;28;20033;-49
2023/08/24 08:39:35;;;;;;;10.18;3.65;;;20.00;99.90;;;;;;5030632;28;20124;-54
2023/08/24 08:42:01;;;;;;;8.38;4.20;;;20.00;99.90;;;;;;5030546;28;20098;-58
2023/08/24 08:44:31;;;;;;;7.50;4.05;;;20.10;99.90;;;;;;5030394;28;20053;-54
2023/08/24 08:46:57;;;;;;;9.70;3.85;;;20.10;99.90;;;;;;5030354;28;20079;-49
2023/08/24 08:49:24;;;;;;;6.50;3.67;;;20.20;99.90;;;;;;5029939;28;20493;-57
2023/08/24 08:51:51;;;;;;;9.95;4.18;;;20.30;99.90;;;;;;5030449;28;20354;-56
2023/08/24 08:54:17;;;;;;;7.32;4.40;;;20.30;99.90;;;;;;5030007;28;20038;-58
2023/08/24 08:56:43;;;;;;;10.55;4.95;;;20.50;99.90;;;;;;5030425;28;20595;-57
2023/08/24 08:59:10;;;;;;;9.00;4.50;;;20.60;99.90;;;;;;5029416;28;20495;-51
2023/08/24 09:01:37;;;;;;;7.55;3.50;;;20.70;99.90;;;;;;5029974;28;20025;-50
2023/08/24 09:04:04;;;;;;;7.57;4.13;;;20.80;99.90;;;;;;5029944;28;20108;-56
2023/08/24 09:06:30;;;;;;;9.35;4.88;;;20.80;99.90;;;;;;5030231;28;20389;-58
2023/08/24 09:08:56;;;;;;;8.57;4.25;;;20.80;99.90;;;;;;5030666;28;20503;-58
2023/08/24 09:11:23;;;;;;;8.63;4.22;;;20.70;99.90;;;;;;5030279;28;20527;-59
2023/08/24 09:13:49;;;;;;;6.88;3.83;;;20.60;99.90;;;;;;5029078;28;20408;-54
2023/08/24 09:16:18;;;;;;;7.18;3.42;;;20.40;99.90;;;;;;5030086;28;20038;-53
2023/08/24 09:18:46;;;;;;;8.18;3.35;;;20.30;99.90;;;;;;5017045;28;20120;-47
2023/08/24 09:21:14;;;;;;;8.38;4.38;;;20.20;99.90;;;;;;5029925;28;20492;-54
2023/08/24 09:23:48;;;;;;;10.05;3.65;;;20.30;99.90;;;;;;5028404;28;20435;-53
2023/08/24 09:26:14;;;;;;;8.07;3.92;;;20.20;99.90;;;;;;5028676;28;20049;-52
2023/08/24 09:28:43;;;;;;;6.50;4.28;;;20.20;99.90;;;;;;5028750;28;20673;-52
2023/08/24 09:31:11;;;;;;;7.32;4.15;;;20.30;99.90;;;;;;5029637;28;20026;-52
2023/08/24 09:33:37;;;;;;;8.23;4.55;;;20.40;99.90;;;;;;5029905;28;20544;-51
2023/08/24 09:36:06;;;;;;;9.02;4.07;;;20.50;99.90;;;;;;5028485;28;20032;-44
2023/08/24 09:38:31;;;;;;;9.15;4.13;;;20.80;99.90;;;;;;5029422;28;20029;-58
2023/08/24 09:40:57;;;;;;;8.40;4.20;;;21.20;99.90;;;;;;5029579;28;20033;-48
2023/08/24 09:43:23;;;;;;;6.82;4.40;;;21.50;99.90;;;;;;5029535;28;20029;-51
2023/08/24 09:45:58;;;;;;;9.40;4.70;;;21.90;99.90;;;;;;5029583;28;20140;-47
2023/08/24 09:48:24;;;;;;;8.90;4.78;;;22.30;99.90;;;;;;5033728;28;20025;-54
2023/08/24 09:50:51;;;;;;;8.05;4.85;;;22.50;99.90;;;;;;5033857;28;20048;-51
2023/08/24 09:53:22;;;;;;;11.45;4.72;;;22.60;99.90;;;;;;5033495;28;20125;-57
2023/08/24 09:56:01;;;;;;;7.30;4.18;;;22.60;99.90;;;;;;5033635;28;20029;-57
2023/08/24 09:58:28;;;;;;;6.78;3.80;;;22.70;99.90;;;;;;5030303;28;20053;-51
2023/08/24 10:00:55;;;;;;;8.63;3.70;;;22.80;99.90;;;;;;5033496;28;20030;-57
2023/08/24 10:03:32;;;;;;;8.25;4.20;;;22.90;99.90;;;;;;5033571;28;20029;-46
2023/08/24 10:06:00;;;;;;;8.75;4.68;;;23.10;99.90;;;;;;5030154;28;20067;-48
2023/08/24 10:08:28;;;;;;;9.73;4.43;;;23.30;99.90;;;;;;5031434;28;20132;-51
2023/08/24 10:10:58;;;;;;;9.45;3.60;;;23.60;99.90;;;;;;5032244;28;20022;-48
2023/08/24 10:13:36;;;;;;;7.25;3.60;;;23.80;99.90;;;;;;5038038;28;20080;-60
2023/08/24 10:16:04;;;;;;;8.88;4.00;;;23.90;99.90;;;;;;5035308;28;20464;-49
2023/08/24 10:18:31;;;;;;;7.88;4.50;;;23.90;99.90;;;;;;5034713;28;20052;-51
2023/08/24 10:20:57;;;;;;;5.95;3.78;;;23.80;99.90;;;;;;5034685;28;20065;-50
2023/08/24 10:23:24;;;;;;;7.18;3.72;;;23.70;99.90;;;;;;5032210;28;20075;-58
2023/08/24 10:25:51;;;;;;;6.40;4.20;;;23.80;99.90;;;;;;5032970;28;20021;-47
2023/08/24 10:28:19;;;;;;;9.52;3.97;;;23.80;99.90;;;;;;5032903;28;20033;-52
2023/08/24 10:30:47;;;;;;;11.60;5.13;;;23.70;99.90;;;;;;5032377;28;20025;-54
2023/08/24 10:33:14;;;;;;;8.43;4.10;;;23.60;99.90;;;;;;5031842;28;20124;-54
2023/08/24 10:35:41;;;;;;;6.07;3.70;;;23.50;99.90;;;;;;5032856;28;20057;-52
2023/08/24 10:38:07;;;;;;;7.45;3.65;;;23.50;99.90;;;;;;5032854;28;20033;-57
2023/08/24 10:40:39;;;;;;;6.72;4.20;;;23.40;99.90;;;;;;5033051;28;20029;-47
2023/08/24 10:43:05;;;;;;;7.20;3.72;;;23.50;99.90;;;;;;5031945;28;20030;-55
2023/08/24 10:46:00;;;;;;;8.40;4.40;;;24.00;99.90;;;;;;5032337;28;20373;-54
2023/08/24 10:48:42;;;;;;;6.43;3.53;;;24.30;99.90;;;;;;5025724;28;20022;-57
2023/08/24 10:51:13;;;;;;;6.80;3.65;;;24.40;99.90;;;;;;5032357;28;20076;-57
2023/08/24 10:53:44;;;;;;;8.48;3.72;;;24.50;99.90;;;;;;5033231;28;20094;-48
2023/08/24 10:56:15;;;;;;;7.53;4.78;;;24.60;99.90;;;;;;5032422;28;20197;-59
2023/08/24 10:58:41;;;;;;;7.57;4.25;;;24.60;99.90;;;;;;5025352;28;20040;-51
2023/08/24 11:01:06;;;;;;;6.53;3.95;;;24.50;99.90;;;;;;5032907;28;20018;-49
2023/08/24 11:03:33;;;;;;;6.78;4.00;;;24.30;99.90;;;;;;5032418;28;20062;-57
2023/08/24 11:05:59;;;;;;;6.22;3.88;;;24.30;99.90;;;;;;5032676;28;20032;-51
2023/08/24 11:08:44;;;;;;;8.18;4.00;;;24.00;99.90;;;;;;5031741;28;20088;-56
2023/08/24 11:11:28;;;;;;;7.47;4.15;;;24.00;99.90;;;;;;5030866;28;20040;-48
2023/08/24 11:14:17;;;;;;;9.57;3.28;;;23.90;99.90;;;;;;5031708;28;20161;-55
2023/08/24 11:16:44;;;;;;;6.22;3.67;;;23.80;99.90;;;;;;5029718;28;20025;-57
2023/08/24 11:19:12;;;;;;;7.68;3.72;;;23.70;99.90;;;;;;5031978;28;20030;-54
2023/08/24 11:21:42;;;;;;;7.78;3.40;;;23.70;99.90;;;;;;5030318;28;20519;-54
2023/08/24 11:24:11;;;;;;;6.25;4.05;;;23.80;99.90;;;;;;5030807;28;20025;-47
2023/08/24 11:26:44;;;;;;;;;;;24.00;99.90;;;;;;5032355;28;20037;-49
2023/08/24 11:29:10;;;;;;;9.85;4.00;;;24.10;99.90;;;;;;5032543;28;19927;-55
2023/08/24 11:31:37;;;;;;;5.40;3.50;;;23.90;99.90;;;;;;5032328;28;20389;-48
2023/08/24 11:34:04;;;;;;;8.30;3.72;;;23.70;99.90;;;;;;5032550;28;20175;-45
2023/08/24 11:36:40;;;;;;;6.35;4.07;;;23.50;99.90;;;;;;5032544;28;20029;-53
2023/08/24 11:39:06;;;;;;;9.25;3.97;;;23.30;99.90;;;;;;5032411;28;20060;-48
2023/08/24 11:41:31;;;;;;;11.48;4.32;;;23.20;99.90;;;;;;5032370;28;20740;-49
2023/08/24 11:44:00;;;;;;;7.13;4.30;;;23.10;99.90;;;;;;5032167;28;20037;-50
2023/08/24 11:46:28;;;;;;;;;;;23.10;99.90;;;;;;5032628;28;20126;-55
2023/08/24 11:48:54;;;;;;;7.40;3.60;;;23.00;99.90;;;;;;5032358;28;19928;-54
2023/08/24 11:51:19;;;;;;;7.97;4.53;;;23.10;99.90;;;;;;5032271;28;20482;-54
2023/08/24 11:53:46;;;;;;;8.93;4.30;;;23.20;99.90;;;;;;5031598;28;20038;-43
2023/08/24 11:56:13;;;;;;;6.65;3.88;;;23.30;99.90;;;;;;5031630;28;20480;-43
2023/08/24 11:58:42;;;;;;;6.47;3.75;;;23.30;99.90;;;;;;5031729;28;20029;-56
2023/08/24 12:01:10;;;;;;;5.43;3.75;;;23.40;99.90;;;;;;5031322;28;20026;-50
2023/08/24 12:03:39;;;;;;;7.68;3.70;;;23.60;99.90;;;;;;5031585;28;20080;-56
2023/08/24 12:06:15;;;;;;;7.70;4.72;;;23.80;99.90;;;;;;5031743;28;20111;-45
2023/08/24 12:08:42;;;;;;;7.93;4.45;;;24.00;99.90;;;;;;5031707;28;20362;-58
2023/08/24 12:11:18;;;;;;;7.22;4.38;;;23.90;99.90;;;;;;5031502;28;20036;-61
2023/08/24 12:13:48;;;;;;;7.75;4.30;;;23.90;99.90;;;;;;5031597;28;20065;-63
2023/08/24 12:16:16;;;;;;;7.03;4.90;;;23.90;99.90;;;;;;5031639;28;20126;-50
2023/08/24 12:18:55;;;;;;;8.18;4.57;;;23.90;99.90;;;;;;5021587;28;20029;-58
2023/08/24 12:21:24;;;;;;;7.30;5.07;;;23.80;99.90;;;;;;5031716;28;20159;-62
2023/08/24 12:23:59;;;;;;;;;;;23.70;99.90;;;;;;5032399;28;20029;-51
2023/08/24 12:26:29;;;;;;;9.27;4.70;;;23.60;99.90;;;;;;5031445;28;19905;-52
2023/08/24 12:29:00;;;;;;;7.70;4.57;;;23.50;99.90;;;;;;5031465;28;20056;-51
2023/08/24 12:31:29;;;;;;;6.78;4.60;;;23.40;99.90;;;;;;5031210;28;20540;-50
2023/08/24 12:34:05;;;;;;;9.60;5.30;;;23.40;99.90;;;;;;5031381;28;20488;-51
2023/08/24 12:36:36;;;;;;;5.50;4.25;;;23.30;99.90;;;;;;5031145;28;20046;-59
2023/08/24 12:39:07;;;;;;;8.93;5.15;;;23.10;99.90;;;;;;5031401;28;20029;-52
2023/08/24 12:41:33;;;;;;;7.65;4.75;;;23.10;99.90;;;;;;5030978;28;20025;-55
2023/08/24 12:43:59;;;;;;;8.40;4.65;;;23.00;99.90;;;;;;5031171;28;20436;-47
2023/08/24 12:46:25;;;;;;;7.80;5.20;;;23.00;99.90;;;;;;5030604;28;20063;-57
2023/08/24 12:48:51;;;;;;;8.02;4.70;;;23.10;99.90;;;;;;5029187;28;20387;-47